Time;durP1;ratioP1;P1;durP2;ratioP2;P2;SDS_P1;SDS_P2;PMS_P1;PMS_P2;Temp;Humidity;BMP_temperature;BMP_pressure;BME280_temperature;BME280_humidity;BME280_pressure;Samples;Min_cycle;Max_cycle;Signal;HPM_P1;HPM_P2
2023/09/25 00:00:34;;;;;;;2.73;2.10;;;;;;;;;;5009294;28;20220;-55
2023/09/25 00:03:01;;;;;;;3.33;2.20;;;;;;;;;;5012443;28;20698;-55
2023/09/25 00:05:28;;;;;;;2.67;2.20;;;;;;;;;;5012996;28;20202;-55
2023/09/25 00:07:54;;;;;;;2.70;1.97;;;;;;;;;;5012725;28;20202;-54
2023/09/25 00:10:22;;;;;;;2.73;2.30;;;;;;;;;;5012839;28;20280;-55
2023/09/25 00:12:48;;;;;;;2.50;2.13;;;;;;;;;;5012715;28;20201;-56
2023/09/25 00:15:14;;;;;;;2.30;2.10;;;;;;;;;;5012520;28;20233;-54
2023/09/25 00:17:42;;;;;;;3.00;2.10;;;;;;;;;;5012459;28;20556;-56
2023/09/25 00:20:10;;;;;;;2.53;2.33;;;;;;;;;;5012497;28;20200;-56
2023/09/25 00:22:36;;;;;;;3.60;2.30;;;;;;;;;;5012339;28;20252;-56
2023/09/25 00:25:02;;;;;;;2.20;2.00;;;;;;;;;;5012401;28;20603;-56
2023/09/25 00:27:33;;;;;;;2.67;2.20;;;;;;;;;;5012524;28;20217;-56
2023/09/25 00:29:59;;;;;;;3.20;2.30;;;;;;;;;;5012405;28;20210;-56
2023/09/25 00:32:25;;;;;;;3.27;2.10;;;;;;;;;;5012355;28;20220;-56
2023/09/25 00:34:51;;;;;;;3.10;2.10;;;;;;;;;;5012223;28;20245;-56
2023/09/25 00:37:17;;;;;;;2.40;2.07;;;;;;;;;;5012669;28;20698;-56
2023/09/25 00:39:44;;;;;;;2.07;1.87;;;;;;;;;;5012106;28;20241;-56
2023/09/25 00:42:10;;;;;;;2.50;2.30;;;;;;;;;;5012402;28;20284;-55
2023/09/25 00:44:38;;;;;;;2.67;2.47;;;;;;;;;;5012568;28;20202;-55
2023/09/25 00:47:04;;;;;;;5.43;2.47;;;;;;;;;;5012538;28;20210;-55
2023/09/25 00:49:31;;;;;;;3.43;2.30;;;;;;;;;;5012339;28;20570;-56
2023/09/25 00:51:57;;;;;;;2.33;2.10;;;;;;;;;;5012234;28;20353;-56
2023/09/25 00:54:23;;;;;;;2.73;2.40;;;;;;;;;;5012109;28;20704;-56
2023/09/25 00:56:49;;;;;;;2.43;2.10;;;;;;;;;;5012279;28;20288;-56
2023/09/25 00:59:16;;;;;;;2.10;1.90;;;;;;;;;;5012081;28;20190;-56
2023/09/25 01:01:43;;;;;;;2.33;2.13;;;;;;;;;;5012195;28;20194;-56
2023/09/25 01:04:09;;;;;;;3.90;2.30;;;;;;;;;;5012210;28;20280;-56
2023/09/25 01:06:35;;;;;;;2.40;2.20;;;;;;;;;;5012095;28;20244;-56
2023/09/25 01:09:01;;;;;;;3.57;2.10;;;;;;;;;;5012192;28;20200;-56
2023/09/25 01:11:28;;;;;;;3.37;2.07;;;;;;;;;;5012194;28;20198;-56
2023/09/25 01:13:55;;;;;;;2.23;2.00;;;;;;;;;;5012519;28;20225;-56
2023/09/25 01:16:22;;;;;;;3.53;2.27;;;;;;;;;;5016019;28;20284;-55
2023/09/25 01:18:49;;;;;;;2.47;1.93;;;;;;;;;;5015840;28;20208;-56
2023/09/25 01:21:15;;;;;;;3.20;2.83;;;;;;;;;;5015772;28;20256;-55
2023/09/25 01:23:43;;;;;;;2.23;2.00;;;;;;;;;;4997873;28;20198;-56
2023/09/25 01:26:09;;;;;;;3.07;2.17;;;;;;;;;;4996119;28;20202;-56
2023/09/25 01:28:35;;;;;;;2.20;2.10;;;;;;;;;;4996111;28;20228;-56
2023/09/25 01:31:01;;;;;;;3.73;2.20;;;;;;;;;;4994100;28;20237;-55
2023/09/25 01:33:27;;;;;;;3.00;2.10;;;;;;;;;;4995646;28;20222;-55
2023/09/25 01:35:53;;;;;;;2.07;1.90;;;;;;;;;;4995630;28;20248;-56
2023/09/25 01:38:19;;;;;;;2.27;2.10;;;;;;;;;;4995891;28;20238;-56
2023/09/25 01:40:46;;;;;;;4.90;2.40;;;;;;;;;;4995979;28;20198;-55
2023/09/25 01:43:12;;;;;;;2.50;2.07;;;;;;;;;;4995904;28;20202;-56
2023/09/25 01:45:38;;;;;;;4.37;1.90;;;;;;;;;;4995626;28;20195;-56
2023/09/25 01:48:05;;;;;;;2.20;2.00;;;;;;;;;;4995763;28;20198;-56
2023/09/25 01:50:32;;;;;;;3.03;2.40;;;;;;;;;;4995634;28;20202;-55
2023/09/25 01:53:00;;;;;;;3.27;2.03;;;;;;;;;;4995495;28;20261;-55
2023/09/25 01:55:28;;;;;;;2.13;1.90;;;;;;;;;;4995457;28;20229;-56
2023/09/25 01:57:55;;;;;;;2.67;1.90;;;;;;;;;;4995402;28;20209;-56
2023/09/25 02:00:21;;;;;;;2.00;1.80;;;;;;;;;;4995543;28;20278;-55
2023/09/25 02:02:47;;;;;;;2.60;2.40;;;;;;;;;;4993535;28;20195;-55
2023/09/25 02:05:14;;;;;;;3.73;2.23;;;;;;;;;;4991510;28;20677;-56
2023/09/25 02:07:40;;;;;;;2.47;2.27;;;;;;;;;;4994852;28;20371;-56
2023/09/25 02:10:07;;;;;;;2.43;2.23;;;;;;;;;;4995045;28;20213;-55
2023/09/25 02:12:33;;;;;;;3.30;2.47;;;;;;;;;;4995076;28;20194;-55
2023/09/25 02:15:04;;;;;;;2.23;2.10;;;;;;;;;;4994831;28;20222;-56
2023/09/25 02:17:32;;;;;;;2.30;2.00;;;;;;;;;;4994892;28;20289;-55
2023/09/25 02:20:11;;;;;;;2.50;2.30;;;;;;;;;;4994823;28;20202;-56
2023/09/25 02:22:37;;;;;;;3.03;2.03;;;;;;;;;;4994835;28;20221;-56
2023/09/25 02:25:03;;;;;;;2.57;2.20;;;;;;;;;;4994779;28;20222;-55
2023/09/25 02:27:29;;;;;;;3.03;2.30;;;;;;;;;;4994809;28;20257;-56
2023/09/25 02:29:55;;;;;;;2.50;2.30;;;;;;;;;;4994637;28;20625;-56
2023/09/25 02:32:23;;;;;;;2.40;2.20;;;;;;;;;;4994740;28;20235;-56
2023/09/25 02:34:49;;;;;;;3.50;2.10;;;;;;;;;;4994501;28;20305;-55
2023/09/25 02:37:15;;;;;;;2.70;2.17;;;;;;;;;;4994629;28;20282;-55
2023/09/25 02:39:41;;;;;;;2.20;2.10;;;;;;;;;;4994296;28;20348;-55
2023/09/25 02:42:07;;;;;;;2.47;2.20;;;;;;;;;;4994447;28;20210;-55
2023/09/25 02:44:33;;;;;;;3.73;2.10;;;;;;;;;;4994422;28;20658;-55
2023/09/25 02:46:59;;;;;;;2.60;2.37;;;;;;;;;;4994207;28;20199;-55
2023/09/25 02:49:27;;;;;;;2.97;2.40;;;;;;;;;;4992667;28;20198;-55
2023/09/25 02:51:53;;;;;;;3.43;2.60;;;;;;;;;;4994250;28;20344;-55
2023/09/25 02:54:19;;;;;;;4.17;2.50;;;;;;;;;;4994204;28;20760;-56
2023/09/25 02:56:46;;;;;;;2.40;2.20;;;;;;;;;;4994133;28;20294;-55
2023/09/25 02:59:12;;;;;;;2.30;2.20;;;;;;;;;;4994142;28;20829;-55
2023/09/25 03:01:38;;;;;;;2.77;2.53;;;;;;;;;;4994007;28;20212;-56
2023/09/25 03:04:04;;;;;;;2.63;2.40;;;;;;;;;;4994267;28;20623;-55
2023/09/25 03:06:32;;;;;;;2.50;2.30;;;;;;;;;;4994042;28;20204;-55
2023/09/25 03:08:58;;;;;;;2.87;2.30;;;;;;;;;;4993827;28;20624;-55
2023/09/25 03:11:24;;;;;;;3.30;2.10;;;;;;;;;;4993837;28;20301;-55
2023/09/25 03:13:50;;;;;;;3.13;2.60;;;;;;;;;;4993686;28;20296;-56
2023/09/25 03:16:17;;;;;;;2.23;2.03;;;;;;;;;;4993825;28;20285;-56
2023/09/25 03:18:43;;;;;;;3.63;2.40;;;;;;;;;;4993544;28;20202;-55
2023/09/25 03:21:10;;;;;;;2.63;2.10;;;;;;;;;;4993743;28;20611;-56
2023/09/25 03:23:38;;;;;;;2.30;2.10;;;;;;;;;;4992681;28;20202;-55
2023/09/25 03:26:04;;;;;;;2.30;2.20;;;;;;;;;;4992961;28;20664;-55
2023/09/25 03:28:30;;;;;;;2.53;2.33;;;;;;;;;;4993544;28;20253;-56
2023/09/25 03:30:56;;;;;;;2.03;1.90;;;;;;;;;;4993483;28;20245;-55
2023/09/25 03:33:27;;;;;;;2.27;1.90;;;;;;;;;;4993460;28;20206;-55
2023/09/25 03:35:53;;;;;;;2.20;2.00;;;;;;;;;;4993248;28;20244;-56
2023/09/25 03:38:19;;;;;;;2.00;1.90;;;;;;;;;;4992763;28;20654;-55
2023/09/25 03:40:46;;;;;;;1.80;1.70;;;;;;;;;;4993358;28;20198;-55
2023/09/25 03:43:12;;;;;;;2.30;2.10;;;;;;;;;;4993333;28;20224;-55
2023/09/25 03:45:38;;;;;;;2.20;2.10;;;;;;;;;;4993125;28;20744;-56
2023/09/25 03:48:05;;;;;;;2.63;2.23;;;;;;;;;;4993145;28;20197;-55
2023/09/25 03:50:31;;;;;;;1.97;1.87;;;;;;;;;;4993266;28;20205;-55
2023/09/25 03:53:00;;;;;;;2.23;2.10;;;;;;;;;;4993081;28;20198;-55
2023/09/25 03:55:26;;;;;;;1.93;1.83;;;;;;;;;;4993172;28;20269;-55
2023/09/25 03:57:53;;;;;;;2.17;2.00;;;;;;;;;;4993070;28;20273;-55
2023/09/25 04:00:19;;;;;;;2.23;2.00;;;;;;;;;;4993019;28;20692;-55
2023/09/25 04:02:45;;;;;;;2.30;2.10;;;;;;;;;;4992898;28;20202;-55
2023/09/25 04:05:14;;;;;;;2.97;2.33;;;;;;;;;;4993133;28;20209;-55
2023/09/25 04:07:40;;;;;;;3.10;2.37;;;;;;;;;;4992826;28;20776;-56
2023/09/25 04:10:07;;;;;;;2.00;1.90;;;;;;;;;;4992869;28;20202;-56
2023/09/25 04:12:34;;;;;;;2.27;2.07;;;;;;;;;;4992967;28;20194;-56
2023/09/25 04:15:01;;;;;;;2.70;2.10;;;;;;;;;;4992785;28;20313;-56
2023/09/25 04:17:28;;;;;;;2.40;2.20;;;;;;;;;;4992693;28;20225;-55
2023/09/25 04:19:54;;;;;;;2.37;2.17;;;;;;;;;;4992744;28;20277;-56
2023/09/25 04:22:20;;;;;;;2.63;2.30;;;;;;;;;;4992735;28;20368;-55
2023/09/25 04:24:46;;;;;;;3.13;2.10;;;;;;;;;;4992609;28;20213;-55
2023/09/25 04:27:13;;;;;;;2.63;2.00;;;;;;;;;;4992739;28;20328;-56
2023/09/25 04:29:41;;;;;;;2.43;2.23;;;;;;;;;;4992751;28;20206;-55
2023/09/25 04:32:08;;;;;;;3.30;2.00;;;;;;;;;;4992691;28;20620;-55
2023/09/25 04:34:35;;;;;;;4.17;2.43;;;;;;;;;;4992591;28;20292;-55
2023/09/25 04:37:01;;;;;;;4.50;2.97;;;;;;;;;;4992569;28;20206;-55
2023/09/25 04:39:27;;;;;;;2.97;2.40;;;;;;;;;;4992386;28;20242;-55
2023/09/25 04:41:53;;;;;;;2.43;2.20;;;;;;;;;;4992347;28;20573;-56
2023/09/25 04:44:19;;;;;;;3.00;2.27;;;;;;;;;;4992645;28;20232;-55
2023/09/25 04:46:45;;;;;;;2.77;2.30;;;;;;;;;;4992269;28;20286;-55
2023/09/25 04:49:13;;;;;;;2.30;2.10;;;;;;;;;;4993522;28;20660;-56
2023/09/25 04:51:39;;;;;;;2.60;2.40;;;;;;;;;;4996299;28;20214;-56
2023/09/25 04:54:05;;;;;;;2.50;2.30;;;;;;;;;;4996462;28;20233;-56
2023/09/25 04:56:31;;;;;;;3.63;2.40;;;;;;;;;;4996412;28;20552;-56
2023/09/25 04:58:58;;;;;;;2.60;2.10;;;;;;;;;;4996263;28;20699;-56
2023/09/25 05:01:24;;;;;;;2.50;2.30;;;;;;;;;;4996332;28;20598;-56
2023/09/25 05:03:50;;;;;;;2.47;2.27;;;;;;;;;;4995448;28;20198;-55
2023/09/25 05:06:17;;;;;;;4.23;2.60;;;;;;;;;;4996195;28;20213;-56
2023/09/25 05:08:43;;;;;;;2.77;2.57;;;;;;;;;;4996012;28;20216;-56
2023/09/25 05:11:11;;;;;;;2.67;2.40;;;;;;;;;;4996189;28;20202;-56
2023/09/25 05:13:37;;;;;;;2.37;2.17;;;;;;;;;;4995908;28;20209;-56
2023/09/25 05:16:03;;;;;;;2.50;2.30;;;;;;;;;;4996075;28;20363;-56
2023/09/25 05:18:29;;;;;;;2.50;2.30;;;;;;;;;;5014643;28;20280;-56
2023/09/25 05:20:57;;;;;;;5.53;2.40;;;;;;;;;;5015092;28;20198;-56
2023/09/25 05:23:24;;;;;;;3.40;2.60;;;;;;;;;;5015285;28;20664;-56
2023/09/25 05:25:50;;;;;;;2.60;2.40;;;;;;;;;;5015530;28;20269;-56
2023/09/25 05:28:16;;;;;;;2.90;2.20;;;;;;;;;;5015486;28;20301;-57
2023/09/25 05:30:42;;;;;;;3.17;2.87;;;;;;;;;;5015422;28;20244;-56
2023/09/25 05:33:08;;;;;;;3.30;2.40;;;;;;;;;;5014987;28;20197;-56
2023/09/25 05:35:34;;;;;;;3.00;2.27;;;;;;;;;;5014879;28;20271;-56
2023/09/25 05:38:01;;;;;;;2.50;2.30;;;;;;;;;;5015045;28;20320;-56
2023/09/25 05:40:28;;;;;;;2.50;2.20;;;;;;;;;;5015253;28;20201;-56
2023/09/25 05:42:54;;;;;;;2.20;2.03;;;;;;;;;;5014889;28;20738;-56
2023/09/25 05:45:21;;;;;;;2.40;2.20;;;;;;;;;;5015153;28;20197;-56
2023/09/25 05:47:47;;;;;;;3.47;2.70;;;;;;;;;;5014886;28;20216;-56
2023/09/25 05:50:14;;;;;;;2.23;2.03;;;;;;;;;;5015085;28;20220;-56
2023/09/25 05:52:40;;;;;;;3.10;2.80;;;;;;;;;;5014783;28;20216;-56
2023/09/25 05:55:07;;;;;;;2.83;2.30;;;;;;;;;;5014842;28;20236;-56
2023/09/25 05:57:34;;;;;;;2.50;2.30;;;;;;;;;;5014910;28;20615;-56
2023/09/25 06:00:00;;;;;;;2.73;2.20;;;;;;;;;;5014221;28;20214;-56
2023/09/25 06:02:27;;;;;;;3.77;2.70;;;;;;;;;;5014696;28;20241;-56
2023/09/25 06:04:53;;;;;;;2.67;2.37;;;;;;;;;;5014658;28;20197;-56
2023/09/25 06:07:19;;;;;;;4.37;2.90;;;;;;;;;;5014751;28;20273;-56
2023/09/25 06:09:46;;;;;;;2.90;2.37;;;;;;;;;;5014498;28;20722;-55
2023/09/25 06:12:13;;;;;;;2.67;2.47;;;;;;;;;;5014748;28;20217;-56
2023/09/25 06:14:41;;;;;;;2.73;2.53;;;;;;;;;;5014411;28;20225;-56
2023/09/25 06:17:09;;;;;;;2.80;2.60;;;;;;;;;;5014291;28;20205;-56
2023/09/25 06:19:35;;;;;;;3.70;2.60;;;;;;;;;;5014438;28;20304;-56
2023/09/25 06:22:01;;;;;;;4.73;2.70;;;;;;;;;;5014295;28;20204;-56
2023/09/25 06:24:27;;;;;;;3.00;2.70;;;;;;;;;;5014366;28;20194;-55
2023/09/25 06:26:53;;;;;;;4.40;2.60;;;;;;;;;;5014143;28;20215;-55
2023/09/25 06:29:23;;;;;;;3.03;2.80;;;;;;;;;;5014382;28;20256;-56
2023/09/25 06:31:50;;;;;;;4.00;2.97;;;;;;;;;;5014099;28;20653;-56
2023/09/25 06:34:16;;;;;;;2.90;2.60;;;;;;;;;;5014192;28;20288;-56
2023/09/25 06:36:42;;;;;;;2.80;2.50;;;;;;;;;;5013933;28;20225;-56
2023/09/25 06:39:09;;;;;;;3.00;2.70;;;;;;;;;;5013957;28;20245;-56
2023/09/25 06:41:36;;;;;;;3.30;2.53;;;;;;;;;;5014192;28;20213;-56
2023/09/25 06:44:04;;;;;;;2.80;2.60;;;;;;;;;;5013960;28;20205;-56
2023/09/25 06:46:30;;;;;;;3.53;2.40;;;;;;;;;;5013967;28;20205;-56
2023/09/25 06:48:57;;;;;;;2.67;2.47;;;;;;;;;;5013912;28;20232;-56
2023/09/25 06:51:23;;;;;;;2.30;2.10;;;;;;;;;;5013604;28;20574;-56
2023/09/25 06:53:49;;;;;;;3.90;2.30;;;;;;;;;;5013169;28;20193;-56
2023/09/25 06:56:15;;;;;;;3.27;2.50;;;;;;;;;;5012058;28;20225;-56
2023/09/25 06:58:42;;;;;;;3.80;2.30;;;;;;;;;;5013506;28;20260;-55
2023/09/25 07:01:08;;;;;;;2.20;2.10;;;;;;;;;;5013572;28;20202;-56
2023/09/25 07:03:34;;;;;;;2.90;2.43;;;;;;;;;;5013716;28;20206;-55
2023/09/25 07:06:01;;;;;;;3.53;2.00;;;;;;;;;;5013500;28;20690;-55
2023/09/25 07:08:27;;;;;;;2.47;2.27;;;;;;;;;;5013590;28;20244;-55
2023/09/25 07:10:53;;;;;;;2.40;2.13;;;;;;;;;;5013362;28;20232;-55
2023/09/25 07:13:20;;;;;;;2.50;2.30;;;;;;;;;;5012681;28;20644;-55
2023/09/25 07:15:47;;;;;;;2.90;2.10;;;;;;;;;;5013394;28;20228;-55
2023/09/25 07:18:13;;;;;;;2.33;2.07;;;;;;;;;;5013355;28;20276;-55
2023/09/25 07:20:39;;;;;;;4.17;2.20;;;;;;;;;;5013391;28;20257;-55
2023/09/25 07:23:06;;;;;;;2.43;2.23;;;;;;;;;;5013163;28;20209;-55
2023/09/25 07:25:33;;;;;;;3.40;2.40;;;;;;;;;;5013261;28;20197;-55
2023/09/25 07:27:59;;;;;;;2.40;2.20;;;;;;;;;;5013225;28;20198;-54
2023/09/25 07:30:25;;;;;;;2.37;2.00;;;;;;;;;;5013157;28;20244;-52
2023/09/25 07:32:51;;;;;;;3.73;2.27;;;;;;;;;;5013105;28;20201;-58
2023/09/25 07:35:18;;;;;;;3.00;2.30;;;;;;;;;;5012954;28;20229;-58
2023/09/25 07:37:44;;;;;;;2.60;2.20;;;;;;;;;;5012677;28;20711;-56
2023/09/25 07:40:13;;;;;;;2.27;2.07;;;;;;;;;;5012978;28;20197;-57
2023/09/25 07:42:40;;;;;;;3.63;2.40;;;;;;;;;;5009750;28;20630;-55
2023/09/25 07:45:09;;;;;;;2.77;1.87;;;;;;;;;;5027082;28;20733;-55
2023/09/25 07:47:38;;;;;;;2.83;2.00;;;;;;;;;;5017803;28;20201;-56
2023/09/25 07:50:10;;;;;;;2.70;2.10;;;;;;;;;;5012515;28;20205;-55
2023/09/25 07:52:36;;;;;;;3.53;2.00;;;;;;;;;;5007355;28;20205;-56
2023/09/25 07:55:03;;;;;;;2.60;2.03;;;;;;;;;;5012426;28;20250;-55
2023/09/25 07:57:30;;;;;;;1.77;1.67;;;;;;;;;;5012556;28;20726;-55
2023/09/25 07:59:57;;;;;;;2.13;1.97;;;;;;;;;;5012190;28;20211;-55
2023/09/25 08:02:23;;;;;;;2.80;2.10;;;;;;;;;;5012512;28;20221;-55
2023/09/25 08:04:49;;;;;;;2.97;1.93;;;;;;;;;;5012512;28;20656;-55
2023/09/25 08:07:15;;;;;;;2.07;1.87;;;;;;;;;;5010724;28;20209;-55
2023/09/25 08:09:41;;;;;;;1.97;1.67;;;;;;;;;;5012345;28;20224;-55
2023/09/25 08:12:07;;;;;;;4.07;1.90;;;;;;;;;;5012266;28;20659;-55
2023/09/25 08:14:35;;;;;;;1.90;1.70;;;;;;;;;;5012513;28;20230;-55
2023/09/25 08:17:02;;;;;;;3.47;1.60;;;;;;;;;;5012296;28;20230;-55
2023/09/25 08:19:28;;;;;;;2.63;1.60;;;;;;;;;;5012555;28;20210;-56
2023/09/25 08:21:54;;;;;;;4.33;1.67;;;;;;;;;;5012349;28;20210;-56
2023/09/25 08:24:20;;;;;;;2.43;1.80;;;;;;;;;;5012279;28;20194;-56
2023/09/25 08:26:46;;;;;;;3.30;1.60;;;;;;;;;;5012291;28;20202;-56
2023/09/25 08:29:13;;;;;;;3.00;1.80;;;;;;;;;;5012078;28;20193;-56
2023/09/25 08:31:40;;;;;;;3.07;1.80;;;;;;;;;;5012145;28;20209;-56
2023/09/25 08:34:07;;;;;;;3.43;1.60;;;;;;;;;;5012099;28;20225;-55
2023/09/25 08:36:34;;;;;;;1.93;1.73;;;;;;;;;;5012121;28;20222;-56
2023/09/25 08:39:00;;;;;;;3.63;1.83;;;;;;;;;;5011936;28;20346;-56
2023/09/25 08:41:26;;;;;;;2.40;1.67;;;;;;;;;;5012094;28;20198;-56
2023/09/25 08:43:53;;;;;;;1.97;1.60;;;;;;;;;;5011913;28;20711;-56
2023/09/25 08:46:19;;;;;;;1.80;1.70;;;;;;;;;;5012194;28;20197;-55
2023/09/25 08:48:47;;;;;;;2.17;1.80;;;;;;;;;;5011924;28;20744;-55
2023/09/25 08:51:14;;;;;;;3.47;1.93;;;;;;;;;;5011915;28;20211;-55
2023/09/25 08:53:40;;;;;;;1.77;1.67;;;;;;;;;;5011959;28;20252;-55
2023/09/25 08:56:12;;;;;;;2.90;1.97;;;;;;;;;;5011628;28;20524;-55
2023/09/25 08:58:40;;;;;;;3.17;1.87;;;;;;;;;;5011879;28;20300;-55
2023/09/25 09:01:06;;;;;;;2.00;1.80;;;;;;;;;;5011875;28;20288;-55
2023/09/25 09:03:34;;;;;;;2.13;1.67;;;;;;;;;;5011936;28;20278;-55
2023/09/25 09:06:01;;;;;;;1.90;1.70;;;;;;;;;;5011878;28;20215;-56
2023/09/25 09:08:28;;;;;;;1.93;1.73;;;;;;;;;;5011798;28;20307;-55
2023/09/25 09:10:54;;;;;;;2.43;1.80;;;;;;;;;;5011460;28;20196;-56
2023/09/25 09:13:22;;;;;;;2.33;1.80;;;;;;;;;;5011660;28;20277;-56
2023/09/25 09:15:49;;;;;;;1.70;1.60;;;;;;;;;;5011606;28;20613;-56
2023/09/25 09:18:20;;;;;;;1.73;1.57;;;;;;;;;;5010104;28;20286;-56
2023/09/25 09:20:46;;;;;;;1.60;1.50;;;;;;;;;;5009809;28;20602;-55
2023/09/25 09:23:14;;;;;;;1.90;1.57;;;;;;;;;;5011475;28;20253;-55
2023/09/25 09:25:41;;;;;;;1.60;1.50;;;;;;;;;;5011593;28;20205;-55
2023/09/25 09:28:07;;;;;;;5.17;2.00;;;;;;;;;;5011469;28;20283;-55
2023/09/25 09:30:34;;;;;;;3.93;1.90;;;;;;;;;;5011587;28;20224;-56
2023/09/25 09:33:00;;;;;;;1.77;1.53;;;;;;;;;;5011515;28;20779;-55
2023/09/25 09:35:26;;;;;;;3.77;1.87;;;;;;;;;;5010808;28;20271;-55
2023/09/25 09:37:53;;;;;;;2.43;1.90;;;;;;;;;;5014722;28;20275;-55
2023/09/25 09:40:20;;;;;;;4.03;1.63;;;;;;;;;;5015078;28;20217;-56
2023/09/25 09:42:48;;;;;;;2.73;1.80;;;;;;;;;;5013010;28;20208;-55
2023/09/25 09:45:15;;;;;;;1.87;1.63;;;;;;;;;;5015094;28;20197;-56
2023/09/25 09:47:42;;;;;;;1.97;1.50;;;;;;;;;;5014775;28;20201;-56
2023/09/25 09:50:09;;;;;;;2.17;1.67;;;;;;;;;;5014554;28;20198;-55
2023/09/25 09:52:35;;;;;;;3.30;1.47;;;;;;;;;;5015001;28;20190;-55
2023/09/25 09:55:02;;;;;;;2.20;1.43;;;;;;;;;;5014440;28;20222;-56
2023/09/25 09:57:30;;;;;;;2.10;1.50;;;;;;;;;;5014920;28;20343;-55
2023/09/25 09:59:56;;;;;;;2.00;1.80;;;;;;;;;;5014589;28;20205;-55
2023/09/25 10:02:23;;;;;;;1.80;1.40;;;;;;;;;;5014656;28;20225;-56
2023/09/25 10:04:50;;;;;;;2.30;1.60;;;;;;;;;;5014561;28;20225;-55
2023/09/25 10:07:17;;;;;;;4.67;1.63;;;;;;;;;;5014883;28;20252;-56
2023/09/25 10:09:56;;;;;;;4.00;1.90;;;;;;;;;;5010563;28;20743;-56
2023/09/25 10:12:37;;;;;;;2.13;1.50;;;;;;;;;;5014204;28;20639;-56
2023/09/25 10:15:06;;;;;;;1.60;1.50;;;;;;;;;;5014346;28;20265;-56
2023/09/25 10:17:40;;;;;;;1.77;1.53;;;;;;;;;;5014460;28;20208;-56
2023/09/25 10:20:26;;;;;;;4.23;1.80;;;;;;;;;;5014206;28;20282;-56
2023/09/25 10:22:54;;;;;;;1.90;1.70;;;;;;;;;;5014257;28;20212;-56
2023/09/25 10:25:20;;;;;;;2.20;1.80;;;;;;;;;;5014500;28;20285;-56
2023/09/25 10:27:46;;;;;;;2.03;1.40;;;;;;;;;;5014415;28;20222;-56
2023/09/25 10:30:14;;;;;;;4.07;2.47;;;;;;;;;;5014095;28;20225;-55
2023/09/25 10:32:40;;;;;;;1.87;1.47;;;;;;;;;;5013965;28;20216;-56
2023/09/25 10:35:25;;;;;;;2.13;1.50;;;;;;;;;;5004486;28;20230;-56
2023/09/25 10:38:08;;;;;;;1.43;1.30;;;;;;;;;;4994047;28;20222;-54
2023/09/25 10:40:36;;;;;;;1.50;1.40;;;;;;;;;;4994262;28;20737;-54
2023/09/25 10:43:02;;;;;;;1.70;1.40;;;;;;;;;;4994190;28;20206;-55
2023/09/25 10:45:28;;;;;;;3.03;1.53;;;;;;;;;;4993649;28;20194;-55
2023/09/25 10:47:54;;;;;;;2.33;1.67;;;;;;;;;;4992706;28;20200;-55
2023/09/25 10:50:20;;;;;;;1.80;1.57;;;;;;;;;;4994231;28;20538;-55
2023/09/25 10:52:46;;;;;;;2.50;1.70;;;;;;;;;;4994073;28;20217;-55
2023/09/25 10:55:14;;;;;;;2.07;1.57;;;;;;;;;;4993838;28;20230;-55
2023/09/25 10:57:40;;;;;;;4.03;1.40;;;;;;;;;;4993987;28;20206;-55
2023/09/25 11:00:15;;;;;;;1.70;1.57;;;;;;;;;;4992314;28;20209;-55
2023/09/25 11:02:41;;;;;;;4.40;1.60;;;;;;;;;;4994067;28;20241;-55
2023/09/25 11:05:08;;;;;;;1.83;1.57;;;;;;;;;;4993715;28;20249;-55
2023/09/25 11:07:36;;;;;;;2.50;1.60;;;;;;;;;;4993473;28;20214;-55
2023/09/25 11:10:02;;;;;;;2.07;1.83;;;;;;;;;;4993778;28;20208;-54
2023/09/25 11:12:30;;;;;;;1.70;1.53;;;;;;;;;;4993274;28;20211;-54
2023/09/25 11:14:57;;;;;;;1.83;1.50;;;;;;;;;;4993062;28;20230;-54
2023/09/25 11:17:23;;;;;;;1.87;1.50;;;;;;;;;;4993340;28;20203;-55
2023/09/25 11:19:51;;;;;;;3.47;1.43;;;;;;;;;;4993605;28;20198;-55
2023/09/25 11:22:19;;;;;;;2.07;1.60;;;;;;;;;;4993652;28;20273;-56
2023/09/25 11:24:51;;;;;;;3.23;1.70;;;;;;;;;;4993459;28;20207;-56
2023/09/25 11:27:17;;;;;;;2.47;1.60;;;;;;;;;;4993512;28;20286;-56
2023/09/25 11:29:49;;;;;;;2.63;1.50;;;;;;;;;;4993513;28;20240;-55
2023/09/25 11:32:16;;;;;;;4.30;1.60;;;;;;;;;;4993302;28;20225;-56
2023/09/25 11:34:43;;;;;;;2.67;1.50;;;;;;;;;;4993155;28;20744;-55
2023/09/25 11:37:18;;;;;;;2.53;1.73;;;;;;;;;;4993529;28;20210;-56
2023/09/25 11:39:44;;;;;;;2.30;1.57;;;;;;;;;;4993286;28;20735;-56
2023/09/25 11:42:10;;;;;;;1.83;1.63;;;;;;;;;;4993272;28;20621;-55
2023/09/25 11:44:36;;;;;;;1.70;1.60;;;;;;;;;;4992875;28;20682;-55
2023/09/25 11:47:06;;;;;;;2.83;1.60;;;;;;;;;;4992903;28;20245;-56
2023/09/25 11:49:32;;;;;;;5.37;1.50;;;;;;;;;;4993379;28;20310;-55
2023/09/25 11:51:58;;;;;;;5.13;1.77;;;;;;;;;;4993000;28;20202;-55
2023/09/25 11:54:24;;;;;;;3.03;1.80;;;;;;;;;;4992878;28;20235;-55
2023/09/25 11:56:50;;;;;;;2.47;1.57;;;;;;;;;;4993008;28;20199;-56
2023/09/25 11:59:16;;;;;;;2.13;1.70;;;;;;;;;;4992535;28;20205;-56
2023/09/25 12:01:42;;;;;;;1.90;1.63;;;;;;;;;;4992894;28;20283;-56
2023/09/25 12:04:09;;;;;;;1.73;1.63;;;;;;;;;;4992720;28;20658;-55
2023/09/25 12:06:36;;;;;;;2.20;1.40;;;;;;;;;;4991611;28;20274;-55
2023/09/25 12:09:10;;;;;;;1.87;1.70;;;;;;;;;;4992930;28;20208;-55
2023/09/25 12:11:37;;;;;;;2.97;1.60;;;;;;;;;;4992939;28;20209;-56
2023/09/25 12:14:03;;;;;;;2.17;1.63;;;;;;;;;;4992774;28;20644;-55
2023/09/25 12:16:29;;;;;;;1.93;1.60;;;;;;;;;;4992574;28;20238;-55
2023/09/25 12:18:56;;;;;;;3.53;2.00;;;;;;;;;;4992694;28;20261;-56
2023/09/25 12:21:24;;;;;;;2.30;1.60;;;;;;;;;;4990758;28;20798;-56
2023/09/25 12:23:50;;;;;;;1.57;1.47;;;;;;;;;;4990620;28;20637;-55
2023/09/25 12:26:16;;;;;;;1.80;1.40;;;;;;;;;;4992591;28;20219;-56
2023/09/25 12:28:42;;;;;;;3.93;1.90;;;;;;;;;;4992699;28;20335;-55
2023/09/25 12:31:09;;;;;;;3.67;1.90;;;;;;;;;;4992612;28;20246;-56
2023/09/25 12:33:35;;;;;;;4.87;2.30;;;;;;;;;;4992542;28;20256;-55
2023/09/25 12:36:01;;;;;;;3.40;1.60;;;;;;;;;;4992348;28;20240;-54
2023/09/25 12:38:28;;;;;;;4.03;1.77;;;;;;;;;;4990698;28;20341;-55
2023/09/25 12:40:55;;;;;;;2.57;1.70;;;;;;;;;;4992445;28;20237;-56
2023/09/25 12:43:21;;;;;;;1.90;1.63;;;;;;;;;;4992666;28;20213;-56
2023/09/25 12:45:47;;;;;;;2.10;1.70;;;;;;;;;;4992556;28;20191;-56
2023/09/25 12:48:13;;;;;;;1.70;1.50;;;;;;;;;;4992385;28;20203;-56
2023/09/25 12:50:39;;;;;;;2.00;1.80;;;;;;;;;;4992382;28;20203;-56
2023/09/25 12:53:05;;;;;;;3.60;1.50;;;;;;;;;;4992330;28;20273;-57
2023/09/25 12:55:33;;;;;;;1.77;1.67;;;;;;;;;;4992219;28;20341;-57
2023/09/25 12:57:59;;;;;;;1.93;1.60;;;;;;;;;;4991737;28;20241;-57
2023/09/25 13:00:25;;;;;;;2.13;1.57;;;;;;;;;;4990272;28;20202;-56
2023/09/25 13:02:51;;;;;;;2.47;1.50;;;;;;;;;;4992026;28;20543;-56
2023/09/25 13:05:18;;;;;;;2.60;2.17;;;;;;;;;;4991996;28;20214;-57
2023/09/25 13:07:44;;;;;;;2.93;1.70;;;;;;;;;;4991752;28;20206;-57
2023/09/25 13:10:12;;;;;;;6.23;1.87;;;;;;;;;;4992895;28;20198;-57
2023/09/25 13:12:39;;;;;;;3.30;1.77;;;;;;;;;;4996097;28;20202;-57
2023/09/25 13:15:10;;;;;;;3.40;1.90;;;;;;;;;;4993488;28;20234;-56
2023/09/25 13:17:36;;;;;;;3.50;1.77;;;;;;;;;;4995761;28;20241;-56
2023/09/25 13:20:07;;;;;;;2.13;1.77;;;;;;;;;;4995743;28;20202;-55
2023/09/25 13:22:34;;;;;;;2.53;1.77;;;;;;;;;;4995919;28;20204;-56
2023/09/25 13:25:00;;;;;;;4.13;2.20;;;;;;;;;;4995469;28;20202;-56
2023/09/25 13:27:26;;;;;;;2.50;1.73;;;;;;;;;;4995609;28;20628;-56
2023/09/25 13:29:53;;;;;;;2.23;1.63;;;;;;;;;;4995543;28;20199;-56
2023/09/25 13:32:19;;;;;;;2.57;1.80;;;;;;;;;;4994826;28;20212;-56
2023/09/25 13:34:45;;;;;;;2.63;2.10;;;;;;;;;;4995197;28;20768;-56
2023/09/25 13:37:11;;;;;;;2.73;1.57;;;;;;;;;;4995396;28;20293;-56
2023/09/25 13:39:39;;;;;;;2.37;1.57;;;;;;;;;;4995095;28;20230;-56
2023/09/25 13:42:05;;;;;;;1.80;1.63;;;;;;;;;;4995216;28;20201;-56
2023/09/25 13:44:31;;;;;;;1.67;1.57;;;;;;;;;;4994931;28;20218;-56
2023/09/25 13:46:58;;;;;;;2.53;1.97;;;;;;;;;;4995126;28;20217;-56
2023/09/25 13:49:25;;;;;;;3.57;2.07;;;;;;;;;;4994966;28;20216;-56
2023/09/25 13:51:51;;;;;;;3.17;1.50;;;;;;;;;;4993337;28;20213;-57
2023/09/25 13:54:17;;;;;;;2.00;1.77;;;;;;;;;;4995208;28;20666;-56
2023/09/25 13:56:43;;;;;;;4.87;1.80;;;;;;;;;;4995349;28;20246;-57
2023/09/25 13:59:09;;;;;;;2.87;1.70;;;;;;;;;;4995165;28;20673;-57
2023/09/25 14:01:35;;;;;;;3.53;1.80;;;;;;;;;;4995049;28;20297;-56
2023/09/25 14:04:03;;;;;;;2.47;1.70;;;;;;;;;;4994351;28;20198;-57
2023/09/25 14:06:30;;;;;;;2.53;1.97;;;;;;;;;;4994727;28;20511;-56
2023/09/25 14:08:56;;;;;;;1.93;1.60;;;;;;;;;;4994835;28;20213;-57
2023/09/25 14:11:22;;;;;;;2.63;1.83;;;;;;;;;;4994903;28;20198;-56
2023/09/25 14:13:48;;;;;;;2.40;1.50;;;;;;;;;;4994980;28;20739;-57
2023/09/25 14:16:14;;;;;;;1.63;1.50;;;;;;;;;;4994671;28;20617;-56
2023/09/25 14:18:40;;;;;;;3.00;1.77;;;;;;;;;;4994948;28;20712;-57
2023/09/25 14:21:07;;;;;;;1.93;1.73;;;;;;;;;;4994301;28;20237;-56
2023/09/25 14:23:34;;;;;;;3.43;1.60;;;;;;;;;;4994685;28;20207;-57
2023/09/25 14:26:00;;;;;;;2.10;1.50;;;;;;;;;;4994707;28;20206;-56
2023/09/25 14:28:26;;;;;;;2.20;1.60;;;;;;;;;;4994830;28;20207;-57
2023/09/25 14:30:52;;;;;;;2.37;1.80;;;;;;;;;;4994547;28;20198;-57
2023/09/25 14:33:18;;;;;;;1.90;1.50;;;;;;;;;;4994631;28;20560;-56
2023/09/25 14:35:44;;;;;;;2.70;1.90;;;;;;;;;;4995178;28;20696;-56
2023/09/25 14:38:11;;;;;;;1.93;1.70;;;;;;;;;;5013921;28;20763;-56
2023/09/25 14:40:37;;;;;;;3.43;1.77;;;;;;;;;;5013969;28;20231;-57